Latest Weather Observations for Pallamana

IDS60901

Issued at 8:21 pm CDT Friday 16 November 2018 (issued every 10 minutes, with the page automatically refreshed every 10 minutes)

About weather observations | Map of Adelaide area stations | Latest observations for Adelaide area | Other Formats
Station Details ID: 024584 Name: PALLAMANA AERODROME Lat: -35.06 Lon: 139.23 Height: 45.0 m
Data from the previous 72 hours. | See also: Recent months at Pallamana
Date/Time
CDT
Temp
°C
App
Temp
°C
Dew
Point
°C
Rel
Hum
%
Delta-T
°C
Wind Press
QNH
hPa
Press
MSL
hPa
Rain since
9am
mm
Dir  Spd
km/h
Gust
km/h
Spd
kts
Gust
kts
16/08:00pm 14.6 8.9 6.5 58 3.9 SSW 26 35 14 19 1023.1 1023.0 0.0
16/07:30pm 15.4 9.2 6.0 53 4.5 SSW 28 37 15 20 1022.8 1022.7 0.0
16/07:00pm 16.3 9.6 5.4 48 5.2 SSW 30 41 16 22 1022.2 1022.1 0.0
16/06:30pm 16.9 9.8 5.4 46 5.5 SSW 32 43 17 23 1021.9 1021.8 0.0
16/06:00pm 17.6 10.6 6.2 47 5.6 S 32 44 17 24 1021.6 1021.5 0.0
16/05:30pm 18.2 11.2 6.2 45 5.9 S 32 46 17 25 1021.4 1021.3 0.0
16/05:00pm 18.7 10.7 5.6 42 6.4 S 37 50 20 27 1021.0 1020.9 0.0
16/04:30pm 20.2 12.3 4.1 34 7.7 SSW 35 50 19 27 1021.0 1020.9 0.0
16/04:00pm 20.8 12.8 3.6 32 8.2 SSW 35 46 19 25 1021.0 1020.9 0.0
16/03:43pm 19.8 11.8 3.8 34 7.6 S 35 54 19 29 1020.8 1020.7 0.0
16/03:30pm 20.8 13.3 4.5 34 7.9 SSW 33 48 18 26 1021.1 1021.0 0.0
16/03:00pm 21.3 13.6 3.2 30 8.6 SSW 33 50 18 27 1021.0 1020.9 0.0
16/02:30pm 22.2 14.4 3.1 28 9.1 SSW 33 46 18 25 1021.1 1021.0 0.0
16/02:00pm 21.9 14.8 5.7 35 8.1 S 32 43 17 23 1021.1 1021.0 0.0
16/01:30pm 21.9 15.5 5.4 34 8.2 S 28 39 15 21 1021.3 1021.2 0.0
16/01:00pm 22.1 15.3 5.2 33 8.4 S 30 43 16 23 1021.3 1021.2 0.0
16/12:30pm 23.0 16.1 4.8 30 9.0 S 30 43 16 23 1021.4 1021.3 0.0
16/12:00pm 23.1 16.9 4.1 29 9.3 SSW 26 39 14 21 1021.6 1021.5 0.0
16/11:30am 22.1 16.2 1.9 26 9.4 SSW 22 33 12 18 1021.8 1021.7 0.0
16/11:00am 21.9 16.7 2.2 27 9.2 SW 19 30 10 16 1021.8 1021.7 0.0
16/10:30am 20.5 16.8 4.6 35 7.7 S 13 22 7 12 1021.9 1021.8 0.0
16/10:00am 19.3 16.4 6.5 43 6.4 SSE 11 15 6 8 1022.0 1021.9 0.0
16/09:30am 18.5 16.0 6.4 45 6.0 SSW 9 15 5 8 1022.1 1022.0 0.0
16/09:00am 17.0 14.6 6.9 51 5.0 S 9 15 5 8 1022.3 1022.2 0.0
16/08:30am 16.5 12.9 6.7 52 4.8 SSW 15 22 8 12 1022.3 1022.2 0.0
16/08:00am 15.2 11.3 7.0 58 4.0 SW 17 19 9 10 1022.1 1022.0 0.0
16/07:30am 13.8 10.7 7.2 64 3.2 WSW 13 17 7 9 1022.2 1022.1 0.0
16/07:00am 11.4 9.5 7.4 76 1.9 SW 7 9 4 5 1022.0 1021.9 0.0
16/06:30am 10.5 6.9 6.9 78 1.7 W 15 19 8 10 1021.9 1021.8 0.0
16/06:00am 9.6 6.0 6.8 83 1.3 W 15 17 8 9 1021.4 1021.3 0.0
16/05:30am 8.4 6.8 6.2 86 1.0 W 4 7 2 4 1021.4 1021.3 0.0
16/05:00am 10.2 7.4 7.0 80 1.5 W 11 15 6 8 1021.3 1021.2 0.0
16/04:30am 10.0 6.0 6.8 80 1.5 W 17 19 9 10 1021.2 1021.1 0.0
16/04:00am 9.9 6.7 6.9 81 1.4 W 13 15 7 8 1021.3 1021.2 0.0
16/03:30am 9.6 6.7 6.6 81 1.4 W 11 13 6 7 1021.5 1021.4 0.0
16/03:00am 8.9 6.7 6.1 82 1.3 SW 7 9 4 5 1021.6 1021.5 0.0
16/02:30am 10.6 7.4 7.0 78 1.7 W 13 15 7 8 1022.0 1021.9 0.0
16/02:00am 10.3 6.7 6.7 78 1.7 WSW 15 17 8 9 1022.5 1022.4 0.0
16/01:30am 10.3 6.7 6.9 79 1.6 WSW 15 17 8 9 1022.8 1022.7 0.0
16/01:00am 10.4 6.8 6.8 78 1.7 WSW 15 15 8 8 1023.0 1022.9 0.0
16/12:30am 10.6 7.4 6.8 77 1.8 WSW 13 15 7 8 1023.4 1023.3 0.0
16/12:00am 10.7 7.5 6.9 77 1.8 WSW 13 13 7 7 1023.6 1023.5 0.0
 
Date/Time
CDT
Temp
°C
App
Temp
°C
Dew
Point
°C
Rel
Hum
%
Delta-T
°C
Wind Press
QNH
hPa
Press
MSL
hPa
Rain since
9am
mm
Dir  Spd
km/h
Gust
km/h
Spd
kts
Gust
kts
15/11:30pm 10.9 8.1 6.9 76 1.9 WSW 11 13 6 7 1023.9 1023.8 0.0
15/11:00pm 11.4 8.9 6.7 73 2.2 WSW 9 11 5 6 1024.2 1024.1 0.0
15/10:30pm 13.1 10.4 7.3 68 2.8 S 11 15 6 8 1024.3 1024.2 0.0
15/10:00pm 13.6 10.1 7.2 65 3.1 SSW 15 19 8 10 1024.3 1024.2 0.0
15/09:30pm 13.9 10.3 6.9 62 3.4 SSW 15 20 8 11 1024.1 1024.0 0.0
15/09:00pm 14.2 10.9 6.3 59 3.8 SSW 13 17 7 9 1024.0 1023.9 0.0
15/08:30pm 15.0 10.9 6.0 55 4.3 SSW 17 28 9 15 1023.8 1023.7 0.0
15/08:00pm 15.7 10.6 5.9 52 4.7 S 22 32 12 17 1023.5 1023.4 0.0
15/07:30pm 16.5 10.7 6.2 50 5.0 SSW 26 35 14 19 1023.5 1023.4 0.0
15/07:00pm 17.6 11.5 6.4 47 5.5 S 28 37 15 20 1023.3 1023.2 0.0
15/06:30pm 18.2 11.7 6.5 46 5.8 S 30 41 16 22 1023.0 1022.9 0.0
15/06:00pm 19.0 12.8 6.0 42 6.4 S 28 39 15 21 1022.8 1022.7 0.0
15/05:30pm 20.1 14.1 5.2 37 7.3 SSW 26 33 14 18 1022.6 1022.5 0.0
15/05:00pm 20.5 14.5 5.2 36 7.5 S 26 35 14 19 1022.4 1022.3 0.0
15/04:30pm 21.0 15.2 4.2 33 8.1 SSE 24 30 13 16 1022.3 1022.2 0.0
15/04:00pm 21.5 16.4 3.2 30 8.7 S 19 28 10 15 1022.4 1022.3 0.0
15/03:30pm 21.4 15.9 1.6 27 9.1 S 20 35 11 19 1022.7 1022.6 0.0
15/03:00pm 21.8 16.4 1.3 25 9.4 S 19 30 10 16 1022.8 1022.7 0.0
15/02:30pm 21.1 16.3 -0.1 24 9.4 S 15 24 8 13 1023.2 1023.1 0.0
15/02:00pm 21.0 15.7 -0.3 24 9.4 SE 17 26 9 14 1023.6 1023.5 0.0
15/01:30pm 20.3 15.5 0.2 26 8.9 SSW 15 28 8 15 1024.0 1023.9 0.0
15/01:00pm 20.7 15.6 0.6 26 9.1 SSE 17 28 9 15 1024.1 1024.0 0.0
15/12:30pm 19.5 15.0 2.3 32 7.9 SSE 15 24 8 13 1024.5 1024.4 0.0
15/12:00pm 20.0 14.7 2.8 32 8.0 S 20 28 11 15 1024.8 1024.7 0.0
15/11:30am 18.7 14.5 3.8 37 7.0 SSE 15 28 8 15 1025.0 1024.9 0.0
15/11:00am 18.1 13.0 2.8 36 7.1 SSE 19 28 10 15 1025.3 1025.2 0.0
15/10:30am 17.7 13.4 3.1 37 6.7 SSE 15 30 8 16 1025.6 1025.5 0.0
15/10:00am 16.7 11.7 3.4 41 6.1 SSE 19 28 10 15 1025.7 1025.6 0.0
15/09:30am 15.9 11.4 4.3 46 5.4 SE 17 28 9 15 1025.9 1025.8 0.0
15/09:00am 15.4 11.2 5.5 51 4.7 SE 17 24 9 13 1025.8 1025.7 0.0
15/08:30am 14.6 10.5 6.3 57 4.0 SE 17 20 9 11 1025.6 1025.5 0.0
15/08:00am 13.9 10.4 7.1 63 3.3 ESE 15 20 8 11 1025.1 1025.0 0.0
15/07:30am 13.8 10.7 7.2 64 3.2 ESE 13 17 7 9 1025.0 1024.9 0.0
15/07:00am 12.8 10.1 7.4 69 2.6 SE 11 13 6 7 1024.7 1024.6 0.0
15/06:30am 11.4 9.5 7.4 76 1.9 S 7 9 4 5 1024.3 1024.2 0.0
15/06:00am 11.6 9.6 7.2 74 2.1 SE 7 9 4 5 1023.6 1023.5 0.0
15/05:30am 11.8 9.4 7.0 72 2.3 SSE 9 13 5 7 1023.4 1023.3 0.0
15/05:00am 13.0 9.9 7.2 68 2.8 SE 13 17 7 9 1023.1 1023.0 0.0
15/04:30am 13.5 10.7 7.1 65 3.1 SE 11 17 6 9 1022.8 1022.7 0.0
15/04:00am 13.3 10.9 7.1 66 3.0 SSE 9 13 5 7 1022.7 1022.6 0.0
15/03:30am 12.5 10.4 6.6 67 2.8 S 7 9 4 5 1022.5 1022.4 0.0
15/03:00am 12.0 9.9 6.5 69 2.6 S 7 11 4 6 1022.4 1022.3 0.0
15/02:30am 13.3 10.1 6.9 65 3.1 S 13 17 7 9 1022.3 1022.2 0.0
15/02:00am 14.6 10.3 7.0 60 3.7 S 19 26 10 14 1022.3 1022.2 0.0
15/01:30am 14.5 11.0 7.4 62 3.5 S 15 19 8 10 1022.4 1022.3 0.0
15/01:00am 14.7 10.2 7.1 60 3.7 S 20 28 11 15 1022.5 1022.4 0.0
15/12:30am 15.1 11.3 7.4 60 3.8 S 17 22 9 12 1022.7 1022.6 0.0
15/12:00am 15.2 10.9 6.8 57 4.1 S 19 26 10 14 1022.7 1022.6 0.0
 
Date/Time
CDT
Temp
°C
App
Temp
°C
Dew
Point
°C
Rel
Hum
%
Delta-T
°C
Wind Press
QNH
hPa
Press
MSL
hPa
Rain since
9am
mm
Dir  Spd
km/h
Gust
km/h
Spd
kts
Gust
kts
14/11:30pm 15.4 11.1 6.8 56 4.2 S 19 26 10 14 1022.8 1022.7 0.0
14/11:00pm 15.4 11.6 7.5 59 3.9 SSW 17 22 9 12 1022.6 1022.5 0.0
14/10:30pm 15.0 11.6 7.8 62 3.6 SSW 15 20 8 11 1022.4 1022.3 0.0
14/10:00pm 15.6 11.7 8.7 63 3.5 S 19 26 10 14 1022.3 1022.2 0.0
14/09:30pm 15.7 11.4 9.3 65 3.3 SSW 22 32 12 17 1021.9 1021.8 0.0
14/09:00pm 15.6 11.0 9.6 67 3.1 S 24 32 13 17 1021.5 1021.4 0.0
14/08:30pm 16.0 10.8 10.1 68 3.1 SSW 28 37 15 20 1021.2 1021.1 0.0
14/08:00pm 16.3 10.5 9.6 64 3.5 SSW 30 41 16 22 1020.8 1020.7 0.0
14/07:30pm 16.4 10.3 10.6 68 3.1 SSW 33 43 18 23 1020.4 1020.3 0.0
14/07:00pm 17.3 11.0 11.0 66 3.4 SSW 35 43 19 23 1019.9 1019.8 0.0
14/06:30pm 18.8 12.7 10.6 59 4.4 S 33 44 18 24 1019.3 1019.2 0.0
14/06:00pm 20.5 14.3 9.4 49 5.9 S 32 44 17 24 1018.8 1018.7 0.0
14/05:30pm 20.5 14.6 9.2 48 6.0 S 30 43 16 23 1018.5 1018.4 0.0
14/05:00pm 21.0 14.7 9.6 48 6.1 S 33 44 18 24 1018.3 1018.2 0.0
14/04:30pm 22.2 15.7 9.1 43 7.0 S 33 46 18 25 1018.0 1017.9 0.0
14/04:00pm 22.5 16.5 8.5 40 7.4 S 30 41 16 22 1017.5 1017.4 0.0
14/03:30pm 23.6 18.5 7.6 35 8.4 SW 24 35 13 19 1017.6 1017.5 0.0
14/03:00pm 22.6 17.6 8.2 39 7.6 SW 24 37 13 20 1017.8 1017.7 0.0
14/02:30pm 22.9 18.5 7.3 36 8.1 W 20 32 11 17 1017.7 1017.6 0.0
14/02:00pm 23.2 18.0 8.8 39 7.7 WSW 26 41 14 22 1017.8 1017.7 0.0
14/01:30pm 23.4 17.6 7.8 36 8.2 WSW 28 39 15 21 1017.8 1017.7 0.0
14/01:00pm 23.2 18.6 8.3 38 7.9 SW 22 35 12 19 1017.7 1017.6 0.0
14/12:30pm 23.1 18.9 7.6 37 8.1 SW 19 33 10 18 1017.4 1017.3 0.0
14/12:00pm 21.9 18.1 7.7 40 7.4 WSW 17 28 9 15 1017.6 1017.5 0.0
14/11:30am 20.9 17.5 7.8 42 6.8 WSW 15 28 8 15 1017.7 1017.6 0.0
14/11:00am 21.2 18.2 7.9 42 6.9 W 13 24 7 13 1017.7 1017.6 0.0
14/10:30am 19.3 16.4 8.0 48 5.8 SW 13 24 7 13 1017.8 1017.7 0.0
14/10:00am 18.7 16.1 9.2 54 5.0 WSW 13 19 7 10 1018.0 1017.9 0.0
14/09:30am 17.7 14.3 9.0 56 4.5 WSW 17 24 9 13 1018.1 1018.0 0.0
14/09:00am 17.4 14.3 8.9 57 4.4 SW 15 22 8 12 1017.7 1017.6 0.0
14/08:30am 16.7 14.1 9.4 62 3.8 WSW 13 17 7 9 1017.5 1017.4 0.0
14/08:00am 16.3 14.2 9.8 65 3.4 SW 11 15 6 8 1017.4 1017.3 0.0
14/07:30am 16.0 13.8 9.4 65 3.4 WSW 11 15 6 8 1016.9 1016.8 0.0
14/07:00am 15.6 13.8 9.4 66 3.2 W 9 13 5 7 1016.6 1016.5 0.0
14/06:30am 15.3 14.0 9.9 70 2.8 WSW 7 9 4 5 1016.4 1016.3 0.0
14/06:00am 15.1 12.7 9.9 71 2.7 SW 13 17 7 9 1016.2 1016.1 0.0
14/05:30am 15.3 12.4 9.5 68 3.0 WSW 15 19 8 10 1016.0 1015.9 0.0
14/05:00am 15.3 11.5 9.1 66 3.2 WSW 19 24 10 13 1015.6 1015.5 0.0
14/04:30am 15.3 11.2 8.8 65 3.3 WSW 20 24 11 13 1015.3 1015.2 0.0
14/04:00am 15.3 12.4 9.5 68 3.0 WSW 15 20 8 11 1015.2 1015.1 0.0
14/03:30am 15.3 12.3 9.1 66 3.2 WSW 15 20 8 11 1015.1 1015.0 0.0
14/03:00am 15.2 12.0 9.8 70 2.8 WSW 17 20 9 11 1015.0 1014.9 0.0
14/02:30am 15.4 12.5 9.8 69 2.9 SW 15 22 8 12 1015.1 1015.0 0.0
14/02:00am 15.5 12.3 10.0 70 2.9 SW 17 20 9 11 1015.3 1015.2 0.0
14/01:30am 15.4 12.7 10.5 72 2.6 SW 15 19 8 10 1015.4 1015.3 0.0
14/01:00am 15.6 12.8 10.1 70 2.9 SW 15 20 8 11 1015.5 1015.4 0.0
14/12:30am 15.7 12.1 10.0 69 3.0 SW 19 24 10 13 1015.6 1015.5 0.0
14/12:00am 15.6 12.6 10.5 71 2.7 SSW 17 22 9 12 1015.6 1015.5 0.0
 
Date/Time
CDT
Temp
°C
App
Temp
°C
Dew
Point
°C
Rel
Hum
%
Delta-T
°C
Wind Press
QNH
hPa
Press
MSL
hPa
Rain since
9am
mm
Dir  Spd
km/h
Gust
km/h
Spd
kts
Gust
kts
13/11:30pm 15.5 11.8 11.4 76 2.2 SSW 22 30 12 16 1015.5 1015.4 0.0
13/11:00pm 15.7 12.2 10.8 72 2.6 SSW 20 26 11 14 1015.4 1015.3 0.0
13/10:30pm 15.6 11.5 11.3 75 2.3 SSW 24 32 13 17 1015.6 1015.5 0.0
13/10:00pm 16.0 11.9 11.6 75 2.4 SSW 24 32 13 17 1015.3 1015.2 0.0
13/09:30pm 16.2 11.8 11.6 74 2.5 SSW 26 32 14 17 1015.0 1014.9 0.0
13/09:00pm 16.5 12.1 11.7 73 2.6 SSW 26 33 14 18 1014.5 1014.4 0.0
13/08:30pm 16.8 13.2 11.9 73 2.7 SSW 22 30 12 16 1014.1 1014.0 0.0

Latest Capital City Observations: Canberra | Sydney | Melbourne | Brisbane | Adelaide | Perth | Hobart | Darwin

Other Formats:

Comma delimited format used in spreadsheet applications
http://www.bom.gov.au/fwo/IDS60901/IDS60901.95818.axf

JavaScript Object Notation format (JSON) in row-major order
http://www.bom.gov.au/fwo/IDS60901/IDS60901.95818.json